createdAt,value
2023-03-16T00:00:21.686Z,3.23
2023-03-16T00:02:49.211Z,3.27
2023-03-16T00:05:16.963Z,3.43
2023-03-16T00:07:44.562Z,2.93
2023-03-16T00:10:13.297Z,3.30
2023-03-16T00:12:43.974Z,3.30
2023-03-16T00:15:12.911Z,3.53
2023-03-16T00:17:40.299Z,3.57
2023-03-16T00:20:08.135Z,3.30
2023-03-16T00:22:35.619Z,2.90
2023-03-16T00:25:03.408Z,2.93
2023-03-16T00:27:31.012Z,3.20
2023-03-16T00:29:58.467Z,3.13
2023-03-16T00:32:32.469Z,2.90
2023-03-16T00:35:02.347Z,2.90
2023-03-16T00:37:33.006Z,3.23
2023-03-16T00:40:02.281Z,3.00
2023-03-16T00:42:31.554Z,3.13
2023-03-16T00:45:02.127Z,2.80
2023-03-16T00:47:32.977Z,2.97
2023-03-16T00:50:01.737Z,3.40
2023-03-16T00:52:29.565Z,2.60
2023-03-16T00:54:58.681Z,2.87
2023-03-16T00:57:28.817Z,3.20
2023-03-16T00:59:56.545Z,3.00
2023-03-16T01:02:24.888Z,3.10
2023-03-16T01:04:54.966Z,2.80
2023-03-16T01:07:22.910Z,3.00
2023-03-16T01:09:51.491Z,3.17
2023-03-16T01:12:20.019Z,3.40
2023-03-16T01:14:48.214Z,3.43
2023-03-16T01:17:17.866Z,3.20
2023-03-16T01:19:46.077Z,3.13
2023-03-16T01:22:13.884Z,3.07
2023-03-16T01:24:42.058Z,3.47
2023-03-16T01:27:09.465Z,3.73
2023-03-16T01:29:38.032Z,3.37
2023-03-16T01:32:06.686Z,3.00
2023-03-16T01:34:34.878Z,3.50
2023-03-16T01:37:02.672Z,3.67
2023-03-16T01:39:50.460Z,3.10
2023-03-16T01:42:18.247Z,3.50
2023-03-16T01:44:54.614Z,3.70
2023-03-16T01:47:24.222Z,3.73
2023-03-16T01:49:55.108Z,3.87
2023-03-16T01:52:33.494Z,3.80
2023-03-16T01:55:06.149Z,3.30
2023-03-16T01:57:39.017Z,3.70
2023-03-16T02:00:11.145Z,3.40
2023-03-16T02:03:00.329Z,3.43
2023-03-16T02:06:03.426Z,3.40
2023-03-16T02:08:34.240Z,3.33
2023-03-16T02:11:01.845Z,3.60
2023-03-16T02:13:49.216Z,3.77
2023-03-16T02:16:19.715Z,3.40
2023-03-16T02:18:51.796Z,3.43
2023-03-16T02:21:39.650Z,3.70
2023-03-16T02:24:07.199Z,3.37
2023-03-16T02:26:48.119Z,4.00
2023-03-16T02:29:46.570Z,3.60
2023-03-16T02:32:15.551Z,3.40
2023-03-16T02:34:43.428Z,3.43
2023-03-16T02:37:13.138Z,3.37
2023-03-16T02:39:44.250Z,3.67
2023-03-16T02:42:19.662Z,3.40
2023-03-16T02:44:52.391Z,3.40
2023-03-16T02:47:44.053Z,3.60
2023-03-16T02:50:13.753Z,3.47
2023-03-16T02:52:42.071Z,3.30
2023-03-16T02:55:10.097Z,3.27
2023-03-16T02:57:38.214Z,3.47
2023-03-16T03:00:19.278Z,3.47
2023-03-16T03:02:50.159Z,3.77
2023-03-16T03:05:17.717Z,3.37
2023-03-16T03:07:45.162Z,3.03
2023-03-16T03:10:13.913Z,3.57
2023-03-16T03:12:41.422Z,3.57
2023-03-16T03:15:11.202Z,3.27
2023-03-16T03:17:46.957Z,3.47
2023-03-16T03:20:17.103Z,3.57
2023-03-16T03:22:47.767Z,3.37
2023-03-16T03:25:17.478Z,2.73
2023-03-16T03:27:46.192Z,3.27
2023-03-16T03:30:19.921Z,3.70
2023-03-16T03:32:48.614Z,3.20
2023-03-16T03:35:17.714Z,3.33
2023-03-16T03:37:45.286Z,3.20
2023-03-16T03:40:16.316Z,3.20
2023-03-16T03:42:47.724Z,3.03
2023-03-16T03:45:16.077Z,3.37
2023-03-16T03:47:44.363Z,2.90
2023-03-16T03:50:16.613Z,3.03
2023-03-16T03:52:54.081Z,3.27
2023-03-16T03:55:21.540Z,3.60
2023-03-16T03:57:48.813Z,3.37
2023-03-16T04:00:20.620Z,3.27
2023-03-16T04:02:48.845Z,3.07
2023-03-16T04:05:27.652Z,3.10
2023-03-16T04:07:57.597Z,3.30
2023-03-16T04:10:27.221Z,3.27
2023-03-16T04:12:56.727Z,2.90
2023-03-16T04:15:24.460Z,3.27
2023-03-16T04:18:14.937Z,3.10
2023-03-16T04:20:43.658Z,3.00
2023-03-16T04:23:16.848Z,3.70
2023-03-16T04:25:46.777Z,3.20
2023-03-16T04:28:18.191Z,3.20
2023-03-16T04:30:48.538Z,3.27
2023-03-16T04:33:23.257Z,2.93
2023-03-16T04:35:52.469Z,3.37
2023-03-16T04:38:22.355Z,3.53
2023-03-16T04:40:56.834Z,3.30
2023-03-16T04:43:28.298Z,3.60
2023-03-16T04:46:04.451Z,3.57
2023-03-16T04:49:36.603Z,3.33
2023-03-16T04:52:06.122Z,4.00
2023-03-16T04:54:34.008Z,3.60
2023-03-16T04:57:05.150Z,4.03
2023-03-16T04:59:43.678Z,4.13
2023-03-16T05:02:22.109Z,4.30
2023-03-16T05:04:50.200Z,3.80
2023-03-16T05:07:18.708Z,3.90
2023-03-16T05:09:50.480Z,4.07
2023-03-16T05:12:17.936Z,4.10
2023-03-16T05:14:47.160Z,3.77
2023-03-16T05:17:31.562Z,3.93
2023-03-16T05:19:59.391Z,3.63
2023-03-16T05:22:27.541Z,4.37
2023-03-16T05:25:15.101Z,4.00
2023-03-16T05:27:47.464Z,3.87
2023-03-16T05:30:21.816Z,3.93
2023-03-16T05:33:07.423Z,3.43
2023-03-16T05:35:56.178Z,4.10
2023-03-16T05:38:33.937Z,3.67
2023-03-16T05:41:06.056Z,3.90
2023-03-16T05:43:53.830Z,3.77
2023-03-16T05:46:24.210Z,3.77
2023-03-16T05:48:52.817Z,3.67
2023-03-16T05:51:21.743Z,3.50
2023-03-16T05:53:49.489Z,3.20
2023-03-16T05:56:29.575Z,3.07
2023-03-16T05:58:57.760Z,3.23
2023-03-16T06:01:26.914Z,3.50
2023-03-16T06:03:54.587Z,3.50
2023-03-16T06:06:26.323Z,3.10
2023-03-16T06:09:00.319Z,3.13
2023-03-16T06:11:28.764Z,3.00
2023-03-16T06:13:58.117Z,2.77
2023-03-16T06:16:26.272Z,3.40
2023-03-16T06:18:53.766Z,3.27
2023-03-16T06:21:21.399Z,3.13
2023-03-16T06:23:51.514Z,3.20
2023-03-16T06:26:20.400Z,3.43
2023-03-16T06:28:49.784Z,3.00
2023-03-16T06:31:17.379Z,3.37
2023-03-16T06:33:46.751Z,3.47
2023-03-16T06:36:15.173Z,3.50
2023-03-16T06:38:47.604Z,3.40
2023-03-16T06:41:35.986Z,3.50
2023-03-16T06:44:03.731Z,3.77
2023-03-16T06:46:33.212Z,3.60
2023-03-16T06:49:04.469Z,3.70
2023-03-16T06:51:33.267Z,3.47
2023-03-16T06:54:01.574Z,4.10
2023-03-16T06:56:29.753Z,4.33
2023-03-16T06:58:57.087Z,4.10
2023-03-16T07:01:24.598Z,3.93
2023-03-16T07:03:52.033Z,4.43
2023-03-16T07:06:24.543Z,3.60
2023-03-16T07:08:52.032Z,3.90
2023-03-16T07:11:21.542Z,5.00
2023-03-16T07:13:48.919Z,4.73
2023-03-16T07:16:18.614Z,4.20
2023-03-16T07:18:46.107Z,5.33
2023-03-16T07:21:16.493Z,4.40
2023-03-16T07:23:45.399Z,4.80
2023-03-16T07:26:15.114Z,4.60
2023-03-16T07:28:51.115Z,5.23
2023-03-16T07:31:18.609Z,4.57
2023-03-16T07:33:46.817Z,4.43
2023-03-16T07:36:22.055Z,4.33
2023-03-16T07:38:55.441Z,4.13
2023-03-16T07:41:23.039Z,3.97
2023-03-16T07:43:50.434Z,4.30
2023-03-16T07:46:17.958Z,4.07
2023-03-16T07:48:45.895Z,4.60
2023-03-16T07:51:14.395Z,4.40
2023-03-16T07:53:44.445Z,4.30
2023-03-16T07:56:19.425Z,4.20
2023-03-16T07:58:51.699Z,4.80
2023-03-16T08:01:19.070Z,4.70
2023-03-16T08:03:47.346Z,4.67
2023-03-16T08:06:14.812Z,4.20
2023-03-16T08:08:43.167Z,4.60
2023-03-16T08:11:23.789Z,4.80
2023-03-16T08:14:04.232Z,4.37
2023-03-16T08:16:51.845Z,4.50
2023-03-16T08:19:20.431Z,4.27
2023-03-16T08:22:01.066Z,3.77
2023-03-16T08:24:35.640Z,4.07
2023-03-16T08:27:05.073Z,4.10
2023-03-16T08:29:34.645Z,4.17
2023-03-16T08:32:04.312Z,4.60
2023-03-16T08:34:40.135Z,4.53
2023-03-16T08:37:09.951Z,4.03
2023-03-16T08:39:37.660Z,4.43
2023-03-16T08:42:15.408Z,3.73
2023-03-16T08:44:49.560Z,3.87
2023-03-16T08:47:17.309Z,4.00
2023-03-16T08:49:45.488Z,4.17
2023-03-16T08:52:16.141Z,3.97
2023-03-16T08:54:59.739Z,4.23
2023-03-16T08:57:29.567Z,4.40
2023-03-16T08:59:57.364Z,4.30
2023-03-16T09:02:25.812Z,3.73
2023-03-16T09:04:53.157Z,4.00
2023-03-16T09:07:20.685Z,4.13
2023-03-16T09:09:48.015Z,4.40
2023-03-16T09:12:15.427Z,4.23
2023-03-16T09:14:42.754Z,4.10
2023-03-16T09:17:12.018Z,4.37
2023-03-16T09:20:01.364Z,3.97
2023-03-16T09:22:26.715Z,4.20
2023-03-16T09:24:54.048Z,3.63
2023-03-16T09:27:22.731Z,4.03
2023-03-16T09:29:51.072Z,3.97
2023-03-16T09:32:18.592Z,4.10
2023-03-16T09:34:46.041Z,4.30
2023-03-16T09:37:13.916Z,4.10
2023-03-16T09:39:41.322Z,3.70
2023-03-16T09:42:37.363Z,3.43
2023-03-16T09:45:22.202Z,3.43
2023-03-16T09:47:50.898Z,3.70
2023-03-16T09:50:35.123Z,3.73
2023-03-16T09:53:24.973Z,4.10
2023-03-16T09:56:13.808Z,3.90
2023-03-16T09:58:41.249Z,3.53
2023-03-16T10:01:49.987Z,3.63
2023-03-16T10:04:37.719Z,3.67
2023-03-16T10:07:11.550Z,3.47
2023-03-16T10:09:52.850Z,3.70
2023-03-16T10:12:23.490Z,3.57
2023-03-16T10:14:59.288Z,3.90
2023-03-16T10:18:02.276Z,3.83
2023-03-16T10:20:33.370Z,3.20
2023-03-16T10:23:06.330Z,3.53
2023-03-16T10:25:39.871Z,3.80
2023-03-16T10:28:07.669Z,3.47
2023-03-16T10:30:38.788Z,3.93
2023-03-16T10:33:30.100Z,3.30
2023-03-16T10:36:19.571Z,3.27
2023-03-16T10:38:55.573Z,3.50
2023-03-16T10:41:28.493Z,3.10
2023-03-16T10:44:06.498Z,3.10
2023-03-16T10:46:41.382Z,3.20
2023-03-16T10:49:20.732Z,3.40
2023-03-16T10:51:48.274Z,3.33
2023-03-16T10:54:22.048Z,3.10
2023-03-16T10:56:50.738Z,3.23
2023-03-16T10:59:35.634Z,3.10
2023-03-16T11:02:19.628Z,3.47
2023-03-16T11:04:48.185Z,2.83
2023-03-16T11:07:24.494Z,3.30
2023-03-16T11:09:53.054Z,3.17
2023-03-16T11:12:27.662Z,3.00
2023-03-16T11:14:56.542Z,3.23
2023-03-16T11:17:44.950Z,3.10
2023-03-16T11:20:18.713Z,2.80
2023-03-16T11:22:48.598Z,2.63
2023-03-16T11:25:48.310Z,3.10
2023-03-16T11:28:20.336Z,2.87
2023-03-16T11:31:11.172Z,3.10
2023-03-16T11:33:38.551Z,2.43
2023-03-16T11:36:30.079Z,2.57
2023-03-16T11:39:07.826Z,2.63
2023-03-16T11:41:40.954Z,2.70
2023-03-16T11:44:33.605Z,4.90
2023-03-16T11:47:41.111Z,3.47
2023-03-16T11:50:27.582Z,2.90
2023-03-16T11:53:14.032Z,2.60
2023-03-16T11:55:57.881Z,2.20
2023-03-16T11:58:46.872Z,2.60
2023-03-16T12:01:36.807Z,2.47
2023-03-16T12:04:41.405Z,2.50
2023-03-16T12:07:17.803Z,2.97
2023-03-16T12:10:06.121Z,2.63
2023-03-16T12:13:20.189Z,2.50
2023-03-16T12:15:55.451Z,2.70
2023-03-16T12:18:26.052Z,2.50
2023-03-16T12:20:53.348Z,2.40
2023-03-16T12:23:31.653Z,2.33
2023-03-16T12:26:02.062Z,2.30
2023-03-16T12:28:31.789Z,2.17
2023-03-16T12:31:40.190Z,2.43
2023-03-16T12:34:25.890Z,2.27
2023-03-16T12:37:16.300Z,2.27
2023-03-16T12:39:45.942Z,2.37
2023-03-16T12:42:51.834Z,2.53
2023-03-16T12:45:34.465Z,2.40
2023-03-16T12:48:25.076Z,2.10
2023-03-16T12:50:59.077Z,2.17
2023-03-16T12:53:28.962Z,2.30
2023-03-16T12:55:57.507Z,2.57
2023-03-16T12:58:27.691Z,2.07
2023-03-16T13:00:58.514Z,2.03
2023-03-16T13:03:27.953Z,1.93
2023-03-16T13:06:00.930Z,2.17
2023-03-16T13:08:29.181Z,1.90
2023-03-16T13:11:11.589Z,1.70
2023-03-16T13:14:12.865Z,1.60
2023-03-16T13:16:41.387Z,1.60
2023-03-16T13:19:29.956Z,1.70
2023-03-16T13:22:04.374Z,1.50
2023-03-16T13:24:43.168Z,1.67
2023-03-16T13:27:23.478Z,1.57
2023-03-16T13:29:57.555Z,1.60
2023-03-16T13:32:30.274Z,1.50
2023-03-16T13:35:02.560Z,1.60
2023-03-16T13:37:30.852Z,1.40
2023-03-16T13:40:00.616Z,1.50
2023-03-16T13:42:34.638Z,1.27
2023-03-16T13:45:13.597Z,1.30
2023-03-16T13:47:44.121Z,1.30
2023-03-16T13:50:13.916Z,1.20
2023-03-16T13:52:44.338Z,1.20
2023-03-16T13:55:17.685Z,1.30
2023-03-16T13:57:46.303Z,1.13
2023-03-16T14:00:26.535Z,1.17
2023-03-16T14:02:59.325Z,1.20
2023-03-16T14:05:33.543Z,1.10
2023-03-16T14:08:01.392Z,1.23
2023-03-16T14:10:34.719Z,1.30
2023-03-16T14:13:10.566Z,1.10
2023-03-16T14:15:41.050Z,1.20
2023-03-16T14:18:16.639Z,1.60
2023-03-16T14:20:44.106Z,1.47
2023-03-16T14:23:21.108Z,1.40
2023-03-16T14:25:49.800Z,1.20
2023-03-16T14:28:19.826Z,1.40
2023-03-16T14:30:52.483Z,1.50
2023-03-16T14:33:32.813Z,1.50
2023-03-16T14:36:07.927Z,1.60
2023-03-16T14:38:37.369Z,1.60
2023-03-16T14:41:27.334Z,1.40
2023-03-16T14:43:59.265Z,1.50
2023-03-16T14:46:37.805Z,1.60
2023-03-16T14:49:17.388Z,1.70
2023-03-16T14:51:45.934Z,1.67
2023-03-16T14:54:18.359Z,1.50
2023-03-16T14:56:51.888Z,1.40
2023-03-16T14:59:20.079Z,1.60
2023-03-16T15:01:49.786Z,1.60
2023-03-16T15:04:20.871Z,1.70
2023-03-16T15:06:48.568Z,1.83
2023-03-16T15:09:34.590Z,1.70
2023-03-16T15:12:02.303Z,1.83
2023-03-16T15:14:48.356Z,1.80
2023-03-16T15:17:15.692Z,1.70
2023-03-16T15:19:43.158Z,1.73
2023-03-16T15:22:12.930Z,2.10
2023-03-16T15:24:40.467Z,1.80
2023-03-16T15:27:20.244Z,1.70
2023-03-16T15:29:47.675Z,1.77
2023-03-16T15:32:18.343Z,1.93
2023-03-16T15:34:46.825Z,1.80
2023-03-16T15:37:17.380Z,2.03
2023-03-16T15:39:46.921Z,1.77
2023-03-16T15:42:18.806Z,2.07
2023-03-16T15:44:47.053Z,1.77
2023-03-16T15:47:14.886Z,1.87
2023-03-16T15:49:47.792Z,1.80
2023-03-16T15:52:38.129Z,1.83
2023-03-16T15:55:08.544Z,1.63
2023-03-16T15:57:36.888Z,1.43
2023-03-16T16:00:04.862Z,1.60
2023-03-16T16:02:33.207Z,1.70
2023-03-16T16:05:00.968Z,1.80
2023-03-16T16:07:28.314Z,1.80
2023-03-16T16:09:55.846Z,1.77
2023-03-16T16:12:27.105Z,1.70
2023-03-16T16:14:56.511Z,1.60
2023-03-16T16:17:41.104Z,1.60
2023-03-16T16:20:20.732Z,1.63
2023-03-16T16:22:48.088Z,1.70
2023-03-16T16:25:15.819Z,1.53
2023-03-16T16:27:43.192Z,1.47
2023-03-16T16:30:21.697Z,1.83
2023-03-16T16:33:51.952Z,1.60
2023-03-16T16:36:47.886Z,1.40
2023-03-16T16:39:22.958Z,2.50
2023-03-16T16:41:52.334Z,2.00
2023-03-16T16:44:23.670Z,1.80
2023-03-16T16:46:52.245Z,1.90
2023-03-16T16:49:30.993Z,1.77
2023-03-16T16:51:59.172Z,1.80
2023-03-16T16:54:29.659Z,1.60
2023-03-16T16:56:58.461Z,1.77
2023-03-16T16:59:29.408Z,1.83
2023-03-16T17:01:57.582Z,1.70
2023-03-16T17:04:27.384Z,1.50
2023-03-16T17:07:00.903Z,1.33
2023-03-16T17:09:30.342Z,1.30
2023-03-16T17:12:01.858Z,1.03
2023-03-16T17:14:31.160Z,1.20
2023-03-16T17:17:04.922Z,1.20
2023-03-16T17:19:32.862Z,1.13
2023-03-16T17:22:00.114Z,1.03
2023-03-16T17:24:29.033Z,1.20
2023-03-16T17:27:00.340Z,1.13
2023-03-16T17:29:34.456Z,1.20
2023-03-16T17:32:04.423Z,1.30
2023-03-16T17:34:34.167Z,1.00
2023-03-16T17:37:02.063Z,1.50
2023-03-16T17:39:32.297Z,1.20
2023-03-16T17:42:00.407Z,1.50
2023-03-16T17:44:32.964Z,1.33
2023-03-16T17:47:00.248Z,1.10
2023-03-16T17:49:28.716Z,1.50
2023-03-16T17:51:56.362Z,1.03
2023-03-16T17:54:23.764Z,1.20
2023-03-16T17:56:53.744Z,1.20
2023-03-16T17:59:22.997Z,1.20
2023-03-16T18:01:50.752Z,1.30
2023-03-16T18:04:18.912Z,1.10
2023-03-16T18:06:47.528Z,1.20
2023-03-16T18:09:15.918Z,1.50
2023-03-16T18:11:47.648Z,1.30
2023-03-16T18:14:36.521Z,1.10
2023-03-16T18:17:27.802Z,1.40
2023-03-16T18:19:55.257Z,1.20
2023-03-16T18:22:24.671Z,1.57
2023-03-16T18:24:55.851Z,1.40
2023-03-16T18:27:22.905Z,1.20
2023-03-16T18:29:50.051Z,1.40
2023-03-16T18:32:25.429Z,1.20
2023-03-16T18:34:53.342Z,1.00
2023-03-16T18:37:24.082Z,1.13
2023-03-16T18:39:53.008Z,1.27
2023-03-16T18:42:25.917Z,1.27
2023-03-16T18:44:53.266Z,1.20
2023-03-16T18:47:23.236Z,1.40
2023-03-16T18:49:54.100Z,1.40
2023-03-16T18:52:30.182Z,1.10
2023-03-16T18:54:58.354Z,1.43
2023-03-16T18:57:28.137Z,1.20
2023-03-16T18:59:55.447Z,1.10
2023-03-16T19:02:31.858Z,1.20
2023-03-16T19:05:02.132Z,1.20
2023-03-16T19:07:37.367Z,1.20
2023-03-16T19:10:17.738Z,1.40
2023-03-16T19:12:44.870Z,1.20
2023-03-16T19:15:21.784Z,1.17
2023-03-16T19:17:49.379Z,1.10
2023-03-16T19:20:19.470Z,1.30
2023-03-16T19:22:49.125Z,1.13
2023-03-16T19:25:24.948Z,1.20
2023-03-16T19:27:52.636Z,1.10
2023-03-16T19:30:27.077Z,1.40
2023-03-16T19:32:55.585Z,1.30
2023-03-16T19:35:33.760Z,1.23
2023-03-16T19:38:08.442Z,1.13
2023-03-16T19:40:35.757Z,1.40
2023-03-16T19:43:02.892Z,1.30
2023-03-16T19:45:33.959Z,1.20
2023-03-16T19:48:01.809Z,1.40
2023-03-16T19:50:29.667Z,1.40
2023-03-16T19:53:00.164Z,1.27
2023-03-16T19:55:31.593Z,1.30
2023-03-16T19:58:07.654Z,1.57
2023-03-16T20:00:34.908Z,1.33
2023-03-16T20:03:02.010Z,1.53
2023-03-16T20:05:31.033Z,1.33
2023-03-16T20:07:59.627Z,1.40
2023-03-16T20:10:29.113Z,1.50
2023-03-16T20:12:58.723Z,1.60
2023-03-16T20:15:32.293Z,1.63
2023-03-16T20:18:00.127Z,1.43
2023-03-16T20:20:30.355Z,1.60
2023-03-16T20:22:59.713Z,1.70
2023-03-16T20:25:32.342Z,1.43
2023-03-16T20:28:02.205Z,1.50
2023-03-16T20:30:30.768Z,2.33
2023-03-16T20:32:58.251Z,2.37
2023-03-16T20:35:29.478Z,2.13
2023-03-16T20:37:56.739Z,2.10
2023-03-16T20:40:24.284Z,1.70
2023-03-16T20:42:52.395Z,1.87
2023-03-16T20:45:25.795Z,1.90
2023-03-16T20:47:53.750Z,1.90
2023-03-16T20:50:27.083Z,2.07
2023-03-16T20:52:54.841Z,2.07
2023-03-16T20:55:25.198Z,2.20
2023-03-16T20:57:54.366Z,1.87
2023-03-16T21:00:33.363Z,1.97
2023-03-16T21:03:02.247Z,2.17
2023-03-16T21:05:29.885Z,2.73
2023-03-16T21:07:57.567Z,1.83
2023-03-16T21:10:26.183Z,2.43
2023-03-16T21:12:55.685Z,1.97
2023-03-16T21:15:28.679Z,2.30
2023-03-16T21:18:04.848Z,2.23
2023-03-16T21:20:33.863Z,2.67
2023-03-16T21:23:01.569Z,2.33
2023-03-16T21:25:32.773Z,2.57
2023-03-16T21:28:02.516Z,2.80
2023-03-16T21:30:32.963Z,2.23
2023-03-16T21:33:01.954Z,2.70
2023-03-16T21:35:35.268Z,2.60
2023-03-16T21:38:12.238Z,2.30
2023-03-16T21:40:39.378Z,2.30
2023-03-16T21:43:06.462Z,2.60
2023-03-16T21:45:33.651Z,2.33
2023-03-16T21:48:00.809Z,2.30
2023-03-16T21:50:33.867Z,2.30
2023-03-16T21:53:01.386Z,2.40
2023-03-16T21:55:30.085Z,2.20
2023-03-16T21:57:58.991Z,2.40
2023-03-16T22:00:32.217Z,2.67
2023-03-16T22:03:00.958Z,2.40
2023-03-16T22:05:39.884Z,2.37
2023-03-16T22:08:16.119Z,2.23
2023-03-16T22:10:43.449Z,2.27
2023-03-16T22:13:12.005Z,2.30
2023-03-16T22:15:42.586Z,2.70
2023-03-16T22:18:49.009Z,2.47
2023-03-16T22:21:35.105Z,2.30
2023-03-16T22:24:05.386Z,2.90
2023-03-16T22:26:32.765Z,2.30
2023-03-16T22:29:01.002Z,3.00
2023-03-16T22:31:39.234Z,2.70
2023-03-16T22:34:07.398Z,2.60
2023-03-16T22:36:34.700Z,2.60
2023-03-16T22:39:04.646Z,2.63
2023-03-16T22:41:31.947Z,2.50
2023-03-16T22:43:59.675Z,2.87
2023-03-16T22:46:28.168Z,2.57
2023-03-16T22:48:56.876Z,2.60
2023-03-16T22:51:36.433Z,2.87
2023-03-16T22:54:11.194Z,2.67
2023-03-16T22:56:45.167Z,2.80
2023-03-16T22:59:18.763Z,2.80
2023-03-16T23:01:48.756Z,2.63
2023-03-16T23:04:32.492Z,2.47
2023-03-16T23:06:59.817Z,2.50
2023-03-16T23:09:26.999Z,2.93
2023-03-16T23:11:56.619Z,2.70
2023-03-16T23:14:27.785Z,2.50
2023-03-16T23:16:55.448Z,2.47
2023-03-16T23:19:29.963Z,2.33
2023-03-16T23:22:05.117Z,2.20
2023-03-16T23:24:33.750Z,2.30
2023-03-16T23:27:01.259Z,2.57
2023-03-16T23:29:28.518Z,2.50
2023-03-16T23:31:55.792Z,2.30
2023-03-16T23:34:25.067Z,2.30
2023-03-16T23:36:52.639Z,2.13
2023-03-16T23:39:19.762Z,2.10
2023-03-16T23:41:49.692Z,2.20
2023-03-16T23:44:23.501Z,2.17
2023-03-16T23:46:51.028Z,2.50
2023-03-16T23:49:22.870Z,2.13
2023-03-16T23:51:51.078Z,2.17
2023-03-16T23:54:23.464Z,2.10
2023-03-16T23:56:51.243Z,2.20
2023-03-16T23:59:19.589Z,2.30
